sensor_id;sensor_type;location;lat;lon;timestamp;temperature;humidity
48860;DHT22;34679;51.436;-2.518;2023-05-29T00:00:20;12.60;99.90
48860;DHT22;34679;51.436;-2.518;2023-05-29T00:02:47;12.50;99.90
48860;DHT22;34679;51.436;-2.518;2023-05-29T00:05:13;12.40;99.90
48860;DHT22;34679;51.436;-2.518;2023-05-29T00:07:40;12.40;99.90
48860;DHT22;34679;51.436;-2.518;2023-05-29T00:10:07;12.30;99.90
48860;DHT22;34679;51.436;-2.518;2023-05-29T00:12:34;12.30;99.90
48860;DHT22;34679;51.436;-2.518;2023-05-29T00:15:01;12.20;99.90
48860;DHT22;34679;51.436;-2.518;2023-05-29T00:17:29;12.20;99.90
48860;DHT22;34679;51.436;-2.518;2023-05-29T00:19:54;12.20;99.90
48860;DHT22;34679;51.436;-2.518;2023-05-29T00:22:20;12.10;99.90
48860;DHT22;34679;51.436;-2.518;2023-05-29T00:24:46;12.10;99.90
48860;DHT22;34679;51.436;-2.518;2023-05-29T00:27:12;12.00;99.90
48860;DHT22;34679;51.436;-2.518;2023-05-29T00:29:38;12.00;99.90
48860;DHT22;34679;51.436;-2.518;2023-05-29T00:32:04;11.90;99.90
48860;DHT22;34679;51.436;-2.518;2023-05-29T00:34:31;11.90;99.90
48860;DHT22;34679;51.436;-2.518;2023-05-29T00:36:57;11.90;99.90
48860;DHT22;34679;51.436;-2.518;2023-05-29T00:39:23;11.80;99.90
48860;DHT22;34679;51.436;-2.518;2023-05-29T00:41:48;11.70;99.90
48860;DHT22;34679;51.436;-2.518;2023-05-29T00:44:18;11.70;99.90
48860;DHT22;34679;51.436;-2.518;2023-05-29T00:46:45;11.60;99.90
48860;DHT22;34679;51.436;-2.518;2023-05-29T00:49:11;11.60;99.90
48860;DHT22;34679;51.436;-2.518;2023-05-29T00:51:37;11.60;99.90
48860;DHT22;34679;51.436;-2.518;2023-05-29T00:54:05;11.60;99.90
48860;DHT22;34679;51.436;-2.518;2023-05-29T00:56:33;11.50;99.90
48860;DHT22;34679;51.436;-2.518;2023-05-29T00:59:00;11.50;99.90
48860;DHT22;34679;51.436;-2.518;2023-05-29T01:01:25;11.40;99.90
48860;DHT22;34679;51.436;-2.518;2023-05-29T01:03:55;11.30;99.90
48860;DHT22;34679;51.436;-2.518;2023-05-29T01:06:23;11.30;99.90
48860;DHT22;34679;51.436;-2.518;2023-05-29T01:08:49;11.20;99.90
48860;DHT22;34679;51.436;-2.518;2023-05-29T01:11:26;11.20;99.90
48860;DHT22;34679;51.436;-2.518;2023-05-29T01:13:54;11.20;99.90
48860;DHT22;34679;51.436;-2.518;2023-05-29T01:16:38;11.10;99.90
48860;DHT22;34679;51.436;-2.518;2023-05-29T01:25:10;10.90;99.90
48860;DHT22;34679;51.436;-2.518;2023-05-29T01:27:37;10.90;99.90
48860;DHT22;34679;51.436;-2.518;2023-05-29T01:30:08;10.80;99.90
48860;DHT22;34679;51.436;-2.518;2023-05-29T01:32:34;10.70;99.90
48860;DHT22;34679;51.436;-2.518;2023-05-29T01:35:01;10.70;99.90
48860;DHT22;34679;51.436;-2.518;2023-05-29T01:37:27;10.60;99.90
48860;DHT22;34679;51.436;-2.518;2023-05-29T01:39:53;10.60;99.90
48860;DHT22;34679;51.436;-2.518;2023-05-29T01:42:19;10.60;99.90
48860;DHT22;34679;51.436;-2.518;2023-05-29T01:44:46;10.50;99.90
48860;DHT22;34679;51.436;-2.518;2023-05-29T01:47:12;10.50;99.90
48860;DHT22;34679;51.436;-2.518;2023-05-29T01:49:39;10.50;99.90
48860;DHT22;34679;51.436;-2.518;2023-05-29T01:52:05;10.50;99.90
48860;DHT22;34679;51.436;-2.518;2023-05-29T01:54:31;10.40;99.90
48860;DHT22;34679;51.436;-2.518;2023-05-29T01:56:57;10.30;99.90
48860;DHT22;34679;51.436;-2.518;2023-05-29T01:59:23;10.30;99.90
48860;DHT22;34679;51.436;-2.518;2023-05-29T02:01:48;10.30;99.90
48860;DHT22;34679;51.436;-2.518;2023-05-29T02:04:14;10.30;99.90
48860;DHT22;34679;51.436;-2.518;2023-05-29T02:06:40;10.20;99.90
48860;DHT22;34679;51.436;-2.518;2023-05-29T02:09:06;10.20;99.90
48860;DHT22;34679;51.436;-2.518;2023-05-29T02:11:32;10.20;99.90
48860;DHT22;34679;51.436;-2.518;2023-05-29T02:13:58;10.20;99.90
48860;DHT22;34679;51.436;-2.518;2023-05-29T02:16:23;10.10;99.90
48860;DHT22;34679;51.436;-2.518;2023-05-29T02:18:49;10.10;99.90
48860;DHT22;34679;51.436;-2.518;2023-05-29T02:21:15;10.00;99.90
48860;DHT22;34679;51.436;-2.518;2023-05-29T02:23:40;10.00;99.90
48860;DHT22;34679;51.436;-2.518;2023-05-29T02:26:06;10.00;99.90
48860;DHT22;34679;51.436;-2.518;2023-05-29T02:28:32;10.00;99.90
48860;DHT22;34679;51.436;-2.518;2023-05-29T02:30:58;10.00;99.90
48860;DHT22;34679;51.436;-2.518;2023-05-29T02:33:24;9.90;99.90
48860;DHT22;34679;51.436;-2.518;2023-05-29T02:35:50;9.90;99.90
48860;DHT22;34679;51.436;-2.518;2023-05-29T02:38:15;9.80;99.90
48860;DHT22;34679;51.436;-2.518;2023-05-29T02:40:41;9.80;99.90
48860;DHT22;34679;51.436;-2.518;2023-05-29T02:43:09;9.80;99.90
48860;DHT22;34679;51.436;-2.518;2023-05-29T02:45:34;9.70;99.90
48860;DHT22;34679;51.436;-2.518;2023-05-29T02:48:00;9.70;99.90
48860;DHT22;34679;51.436;-2.518;2023-05-29T02:50:26;9.70;99.90
48860;DHT22;34679;51.436;-2.518;2023-05-29T02:52:53;9.60;99.90
48860;DHT22;34679;51.436;-2.518;2023-05-29T02:55:19;9.60;99.90
48860;DHT22;34679;51.436;-2.518;2023-05-29T02:57:44;9.60;99.90
48860;DHT22;34679;51.436;-2.518;2023-05-29T03:00:11;9.60;99.90
48860;DHT22;34679;51.436;-2.518;2023-05-29T03:02:37;9.60;99.90
48860;DHT22;34679;51.436;-2.518;2023-05-29T03:05:03;9.50;99.90
48860;DHT22;34679;51.436;-2.518;2023-05-29T03:07:29;9.50;99.90
48860;DHT22;34679;51.436;-2.518;2023-05-29T03:09:54;9.50;99.90
48860;DHT22;34679;51.436;-2.518;2023-05-29T03:12:20;9.40;99.90
48860;DHT22;34679;51.436;-2.518;2023-05-29T03:14:46;9.40;99.90
48860;DHT22;34679;51.436;-2.518;2023-05-29T03:17:13;9.40;99.90
48860;DHT22;34679;51.436;-2.518;2023-05-29T03:19:38;9.30;99.90
48860;DHT22;34679;51.436;-2.518;2023-05-29T03:22:04;9.20;99.90
48860;DHT22;34679;51.436;-2.518;2023-05-29T03:24:30;9.30;99.90
48860;DHT22;34679;51.436;-2.518;2023-05-29T03:26:56;9.20;99.90
48860;DHT22;34679;51.436;-2.518;2023-05-29T03:29:22;9.30;99.90
48860;DHT22;34679;51.436;-2.518;2023-05-29T03:31:48;9.20;99.90
48860;DHT22;34679;51.436;-2.518;2023-05-29T03:34:13;9.20;99.90
48860;DHT22;34679;51.436;-2.518;2023-05-29T03:36:39;9.20;99.90
48860;DHT22;34679;51.436;-2.518;2023-05-29T03:39:05;9.10;99.90
48860;DHT22;34679;51.436;-2.518;2023-05-29T03:41:31;9.10;99.90
48860;DHT22;34679;51.436;-2.518;2023-05-29T03:43:57;9.10;99.90
48860;DHT22;34679;51.436;-2.518;2023-05-29T03:46:23;9.10;99.90
48860;DHT22;34679;51.436;-2.518;2023-05-29T03:48:48;9.10;99.90
48860;DHT22;34679;51.436;-2.518;2023-05-29T03:51:15;9.10;99.90
48860;DHT22;34679;51.436;-2.518;2023-05-29T03:53:41;9.00;99.90
48860;DHT22;34679;51.436;-2.518;2023-05-29T03:56:07;9.10;99.90
48860;DHT22;34679;51.436;-2.518;2023-05-29T03:58:32;9.00;99.90
48860;DHT22;34679;51.436;-2.518;2023-05-29T04:00:58;9.00;99.90
48860;DHT22;34679;51.436;-2.518;2023-05-29T04:03:24;9.00;99.90
48860;DHT22;34679;51.436;-2.518;2023-05-29T04:05:49;9.00;99.90
48860;DHT22;34679;51.436;-2.518;2023-05-29T04:08:15;9.00;99.90
48860;DHT22;34679;51.436;-2.518;2023-05-29T04:10:41;9.00;99.90
48860;DHT22;34679;51.436;-2.518;2023-05-29T04:13:06;8.90;99.90
48860;DHT22;34679;51.436;-2.518;2023-05-29T04:15:32;8.90;99.90
48860;DHT22;34679;51.436;-2.518;2023-05-29T04:18:01;9.00;99.90
48860;DHT22;34679;51.436;-2.518;2023-05-29T04:20:27;8.90;99.90
48860;DHT22;34679;51.436;-2.518;2023-05-29T04:22:52;9.00;99.90
48860;DHT22;34679;51.436;-2.518;2023-05-29T04:25:18;9.10;99.90
48860;DHT22;34679;51.436;-2.518;2023-05-29T04:27:44;9.10;99.90
48860;DHT22;34679;51.436;-2.518;2023-05-29T04:30:15;9.10;99.90
48860;DHT22;34679;51.436;-2.518;2023-05-29T04:32:41;9.20;99.90
48860;DHT22;34679;51.436;-2.518;2023-05-29T04:35:08;9.20;99.90
48860;DHT22;34679;51.436;-2.518;2023-05-29T04:37:35;9.40;99.90
48860;DHT22;34679;51.436;-2.518;2023-05-29T04:40:08;9.40;99.90
48860;DHT22;34679;51.436;-2.518;2023-05-29T04:42:38;9.60;99.90
48860;DHT22;34679;51.436;-2.518;2023-05-29T04:45:06;9.90;99.90
48860;DHT22;34679;51.436;-2.518;2023-05-29T04:47:32;10.30;99.90
48860;DHT22;34679;51.436;-2.518;2023-05-29T04:50:02;10.70;99.90
48860;DHT22;34679;51.436;-2.518;2023-05-29T04:52:28;11.10;99.90
48860;DHT22;34679;51.436;-2.518;2023-05-29T04:54:57;11.40;99.90
48860;DHT22;34679;51.436;-2.518;2023-05-29T04:57:22;11.80;99.90
48860;DHT22;34679;51.436;-2.518;2023-05-29T04:59:48;12.00;99.90
48860;DHT22;34679;51.436;-2.518;2023-05-29T05:02:14;12.70;99.90
48860;DHT22;34679;51.436;-2.518;2023-05-29T05:04:40;13.10;99.90
48860;DHT22;34679;51.436;-2.518;2023-05-29T05:07:06;13.50;99.90
48860;DHT22;34679;51.436;-2.518;2023-05-29T05:09:31;13.80;99.90
48860;DHT22;34679;51.436;-2.518;2023-05-29T05:11:57;13.90;99.90
48860;DHT22;34679;51.436;-2.518;2023-05-29T05:14:23;14.00;99.90
48860;DHT22;34679;51.436;-2.518;2023-05-29T05:16:49;14.30;99.90
48860;DHT22;34679;51.436;-2.518;2023-05-29T05:19:15;14.50;99.90
48860;DHT22;34679;51.436;-2.518;2023-05-29T05:21:40;14.70;99.90
48860;DHT22;34679;51.436;-2.518;2023-05-29T05:24:06;14.80;99.90
48860;DHT22;34679;51.436;-2.518;2023-05-29T05:26:32;14.30;99.90
48860;DHT22;34679;51.436;-2.518;2023-05-29T05:28:57;14.10;99.90
48860;DHT22;34679;51.436;-2.518;2023-05-29T05:31:25;14.50;99.90
48860;DHT22;34679;51.436;-2.518;2023-05-29T05:33:51;15.00;99.90
48860;DHT22;34679;51.436;-2.518;2023-05-29T05:36:16;15.20;99.80
48860;DHT22;34679;51.436;-2.518;2023-05-29T05:38:42;15.70;99.40
48860;DHT22;34679;51.436;-2.518;2023-05-29T05:41:08;16.80;98.50
48860;DHT22;34679;51.436;-2.518;2023-05-29T05:43:33;16.90;97.60
48860;DHT22;34679;51.436;-2.518;2023-05-29T05:45:59;17.60;97.30
48860;DHT22;34679;51.436;-2.518;2023-05-29T05:48:25;18.10;96.00
48860;DHT22;34679;51.436;-2.518;2023-05-29T05:50:50;18.00;96.70
48860;DHT22;34679;51.436;-2.518;2023-05-29T05:53:16;17.90;96.10
48860;DHT22;34679;51.436;-2.518;2023-05-29T05:55:42;17.40;96.70
48860;DHT22;34679;51.436;-2.518;2023-05-29T05:58:08;17.90;96.60
48860;DHT22;34679;51.436;-2.518;2023-05-29T06:00:34;18.20;96.10
48860;DHT22;34679;51.436;-2.518;2023-05-29T06:03:00;18.30;96.40
48860;DHT22;34679;51.436;-2.518;2023-05-29T06:05:29;18.70;95.20
48860;DHT22;34679;51.436;-2.518;2023-05-29T06:07:55;19.30;95.30
48860;DHT22;34679;51.436;-2.518;2023-05-29T06:10:21;19.70;94.10
48860;DHT22;34679;51.436;-2.518;2023-05-29T06:12:46;19.80;94.40
48860;DHT22;34679;51.436;-2.518;2023-05-29T06:15:12;19.40;94.80
48860;DHT22;34679;51.436;-2.518;2023-05-29T06:17:39;20.30;93.70
48860;DHT22;34679;51.436;-2.518;2023-05-29T06:20:05;19.30;94.50
48860;DHT22;34679;51.436;-2.518;2023-05-29T06:22:40;19.50;93.90
48860;DHT22;34679;51.436;-2.518;2023-05-29T06:25:06;18.90;94.60
48860;DHT22;34679;51.436;-2.518;2023-05-29T06:27:32;19.60;93.80
48860;DHT22;34679;51.436;-2.518;2023-05-29T06:29:57;19.40;93.70
48860;DHT22;34679;51.436;-2.518;2023-05-29T06:32:23;19.30;93.50
48860;DHT22;34679;51.436;-2.518;2023-05-29T06:34:49;18.70;93.50
48860;DHT22;34679;51.436;-2.518;2023-05-29T06:37:14;18.60;93.70
48860;DHT22;34679;51.436;-2.518;2023-05-29T06:39:43;17.70;94.60
48860;DHT22;34679;51.436;-2.518;2023-05-29T06:42:09;18.10;94.40
48860;DHT22;34679;51.436;-2.518;2023-05-29T06:44:35;18.40;93.80
48860;DHT22;34679;51.436;-2.518;2023-05-29T06:47:01;18.70;93.70
48860;DHT22;34679;51.436;-2.518;2023-05-29T06:49:26;18.00;93.60
48860;DHT22;34679;51.436;-2.518;2023-05-29T06:51:52;17.90;93.80
48860;DHT22;34679;51.436;-2.518;2023-05-29T06:54:18;18.30;93.70
48860;DHT22;34679;51.436;-2.518;2023-05-29T06:56:43;17.60;94.10
48860;DHT22;34679;51.436;-2.518;2023-05-29T06:59:09;18.00;93.80
48860;DHT22;34679;51.436;-2.518;2023-05-29T07:01:35;18.30;93.60
48860;DHT22;34679;51.436;-2.518;2023-05-29T07:04:01;18.80;93.30
48860;DHT22;34679;51.436;-2.518;2023-05-29T07:06:26;18.70;93.00
48860;DHT22;34679;51.436;-2.518;2023-05-29T07:08:52;18.60;93.40
48860;DHT22;34679;51.436;-2.518;2023-05-29T07:11:18;18.20;93.30
48860;DHT22;34679;51.436;-2.518;2023-05-29T07:13:43;19.10;92.80
48860;DHT22;34679;51.436;-2.518;2023-05-29T07:16:09;18.30;93.00
48860;DHT22;34679;51.436;-2.518;2023-05-29T07:18:35;18.90;92.80
48860;DHT22;34679;51.436;-2.518;2023-05-29T07:21:01;18.90;92.60
48860;DHT22;34679;51.436;-2.518;2023-05-29T07:23:26;18.50;92.60
48860;DHT22;34679;51.436;-2.518;2023-05-29T07:25:52;18.10;92.80
48860;DHT22;34679;51.436;-2.518;2023-05-29T07:28:18;17.70;93.30
48860;DHT22;34679;51.436;-2.518;2023-05-29T07:30:43;18.40;93.10
48860;DHT22;34679;51.436;-2.518;2023-05-29T07:33:09;18.40;92.50
48860;DHT22;34679;51.436;-2.518;2023-05-29T07:35:35;18.20;92.50
48860;DHT22;34679;51.436;-2.518;2023-05-29T07:38:01;18.40;92.50
48860;DHT22;34679;51.436;-2.518;2023-05-29T07:40:26;17.90;92.70
48860;DHT22;34679;51.436;-2.518;2023-05-29T07:42:52;18.50;92.40
48860;DHT22;34679;51.436;-2.518;2023-05-29T07:45:18;18.50;92.70
48860;DHT22;34679;51.436;-2.518;2023-05-29T07:47:44;18.40;92.50
48860;DHT22;34679;51.436;-2.518;2023-05-29T07:50:10;19.00;92.30
48860;DHT22;34679;51.436;-2.518;2023-05-29T07:52:36;18.00;92.50
48860;DHT22;34679;51.436;-2.518;2023-05-29T07:55:02;18.30;92.50
48860;DHT22;34679;51.436;-2.518;2023-05-29T07:57:28;18.00;92.40
48860;DHT22;34679;51.436;-2.518;2023-05-29T07:59:54;18.30;92.50
48860;DHT22;34679;51.436;-2.518;2023-05-29T08:02:21;17.90;92.80
48860;DHT22;34679;51.436;-2.518;2023-05-29T08:04:47;18.30;92.20
48860;DHT22;34679;51.436;-2.518;2023-05-29T08:07:12;18.90;92.20
48860;DHT22;34679;51.436;-2.518;2023-05-29T08:09:38;18.60;92.40
48860;DHT22;34679;51.436;-2.518;2023-05-29T08:12:04;18.50;92.00
48860;DHT22;34679;51.436;-2.518;2023-05-29T08:14:31;19.30;92.00
48860;DHT22;34679;51.436;-2.518;2023-05-29T08:16:56;19.40;91.50
48860;DHT22;34679;51.436;-2.518;2023-05-29T08:19:23;17.70;92.30
48860;DHT22;34679;51.436;-2.518;2023-05-29T08:21:49;17.50;93.30
48860;DHT22;34679;51.436;-2.518;2023-05-29T08:24:14;17.10;93.50
48860;DHT22;34679;51.436;-2.518;2023-05-29T08:26:40;17.90;93.10
48860;DHT22;34679;51.436;-2.518;2023-05-29T08:29:06;17.70;93.20
48860;DHT22;34679;51.436;-2.518;2023-05-29T08:31:32;17.60;93.00
48860;DHT22;34679;51.436;-2.518;2023-05-29T08:33:58;17.30;93.50
48860;DHT22;34679;51.436;-2.518;2023-05-29T08:36:24;16.60;94.40
48860;DHT22;34679;51.436;-2.518;2023-05-29T08:38:51;16.40;94.60
48860;DHT22;34679;51.436;-2.518;2023-05-29T08:41:25;16.40;94.80
48860;DHT22;34679;51.436;-2.518;2023-05-29T08:43:52;17.50;93.00
48860;DHT22;34679;51.436;-2.518;2023-05-29T08:46:19;18.00;92.60
48860;DHT22;34679;51.436;-2.518;2023-05-29T08:48:51;17.90;92.30
48860;DHT22;34679;51.436;-2.518;2023-05-29T08:51:20;17.60;92.90
48860;DHT22;34679;51.436;-2.518;2023-05-29T08:53:47;17.20;93.20
48860;DHT22;34679;51.436;-2.518;2023-05-29T08:56:13;17.80;92.80
48860;DHT22;34679;51.436;-2.518;2023-05-29T08:58:38;17.80;92.90
48860;DHT22;34679;51.436;-2.518;2023-05-29T09:01:05;18.50;92.20
48860;DHT22;34679;51.436;-2.518;2023-05-29T09:03:30;18.40;92.20
48860;DHT22;34679;51.436;-2.518;2023-05-29T09:06:00;18.60;92.10
48860;DHT22;34679;51.436;-2.518;2023-05-29T09:08:26;19.00;92.00
48860;DHT22;34679;51.436;-2.518;2023-05-29T09:10:53;19.00;92.30
48860;DHT22;34679;51.436;-2.518;2023-05-29T09:13:20;19.70;91.90
48860;DHT22;34679;51.436;-2.518;2023-05-29T09:15:46;19.60;92.20
48860;DHT22;34679;51.436;-2.518;2023-05-29T09:18:12;20.20;91.10
48860;DHT22;34679;51.436;-2.518;2023-05-29T09:20:38;20.30;91.10
48860;DHT22;34679;51.436;-2.518;2023-05-29T09:23:05;20.50;91.00
48860;DHT22;34679;51.436;-2.518;2023-05-29T09:25:33;19.10;91.80
48860;DHT22;34679;51.436;-2.518;2023-05-29T09:28:04;18.30;92.50
48860;DHT22;34679;51.436;-2.518;2023-05-29T09:30:42;18.20;93.00
48860;DHT22;34679;51.436;-2.518;2023-05-29T09:33:09;18.30;93.20
48860;DHT22;34679;51.436;-2.518;2023-05-29T09:35:43;18.70;92.90
48860;DHT22;34679;51.436;-2.518;2023-05-29T09:38:11;18.40;92.80
48860;DHT22;34679;51.436;-2.518;2023-05-29T09:40:39;18.50;93.30
48860;DHT22;34679;51.436;-2.518;2023-05-29T09:43:10;19.10;93.00
48860;DHT22;34679;51.436;-2.518;2023-05-29T09:45:40;19.40;92.00
48860;DHT22;34679;51.436;-2.518;2023-05-29T09:48:07;19.40;92.20
48860;DHT22;34679;51.436;-2.518;2023-05-29T09:50:34;20.10;92.00
48860;DHT22;34679;51.436;-2.518;2023-05-29T09:53:00;20.20;91.70
48860;DHT22;34679;51.436;-2.518;2023-05-29T09:55:27;19.60;91.80
48860;DHT22;34679;51.436;-2.518;2023-05-29T09:57:54;19.90;92.20
48860;DHT22;34679;51.436;-2.518;2023-05-29T10:00:21;20.10;92.00
48860;DHT22;34679;51.436;-2.518;2023-05-29T10:02:50;20.10;91.90
48860;DHT22;34679;51.436;-2.518;2023-05-29T10:05:16;19.80;92.30
48860;DHT22;34679;51.436;-2.518;2023-05-29T10:07:44;19.70;92.30
48860;DHT22;34679;51.436;-2.518;2023-05-29T10:10:14;19.50;92.10
48860;DHT22;34679;51.436;-2.518;2023-05-29T10:12:46;19.40;92.40
48860;DHT22;34679;51.436;-2.518;2023-05-29T10:15:14;18.80;92.60
48860;DHT22;34679;51.436;-2.518;2023-05-29T10:17:49;18.70;92.80
48860;DHT22;34679;51.436;-2.518;2023-05-29T10:20:15;18.70;92.80
48860;DHT22;34679;51.436;-2.518;2023-05-29T10:22:45;18.30;93.30
48860;DHT22;34679;51.436;-2.518;2023-05-29T10:25:13;18.20;93.10
48860;DHT22;34679;51.436;-2.518;2023-05-29T10:27:41;18.00;93.50
48860;DHT22;34679;51.436;-2.518;2023-05-29T10:30:43;17.80;93.40
48860;DHT22;34679;51.436;-2.518;2023-05-29T10:33:41;17.80;93.60
48860;DHT22;34679;51.436;-2.518;2023-05-29T10:36:13;17.30;94.40
48860;DHT22;34679;51.436;-2.518;2023-05-29T10:38:45;17.00;94.50
48860;DHT22;34679;51.436;-2.518;2023-05-29T10:41:30;16.80;94.90
48860;DHT22;34679;51.436;-2.518;2023-05-29T10:44:02;16.90;95.00
48860;DHT22;34679;51.436;-2.518;2023-05-29T10:49:20;16.80;94.90
48860;DHT22;34679;51.436;-2.518;2023-05-29T10:51:46;17.10;95.10
48860;DHT22;34679;51.436;-2.518;2023-05-29T10:54:12;17.80;94.70
48860;DHT22;34679;51.436;-2.518;2023-05-29T10:56:39;17.90;94.90
48860;DHT22;34679;51.436;-2.518;2023-05-29T10:59:08;17.70;94.60
48860;DHT22;34679;51.436;-2.518;2023-05-29T11:01:38;17.80;94.60
48860;DHT22;34679;51.436;-2.518;2023-05-29T11:06:48;17.70;94.70
48860;DHT22;34679;51.436;-2.518;2023-05-29T11:09:33;17.60;94.70
48860;DHT22;34679;51.436;-2.518;2023-05-29T11:12:24;17.30;94.90
48860;DHT22;34679;51.436;-2.518;2023-05-29T11:15:06;17.20;95.20
48860;DHT22;34679;51.436;-2.518;2023-05-29T11:25:13;17.30;95.40
48860;DHT22;34679;51.436;-2.518;2023-05-29T11:27:40;17.20;95.50
48860;DHT22;34679;51.436;-2.518;2023-05-29T11:30:06;17.30;95.50
48860;DHT22;34679;51.436;-2.518;2023-05-29T11:32:34;17.40;95.10
48860;DHT22;34679;51.436;-2.518;2023-05-29T11:35:09;17.50;95.20
48860;DHT22;34679;51.436;-2.518;2023-05-29T11:37:38;17.40;95.30
48860;DHT22;34679;51.436;-2.518;2023-05-29T11:40:06;17.40;94.70
48860;DHT22;34679;51.436;-2.518;2023-05-29T11:42:33;17.20;95.20
48860;DHT22;34679;51.436;-2.518;2023-05-29T11:45:16;17.10;95.10
48860;DHT22;34679;51.436;-2.518;2023-05-29T11:47:58;17.30;95.00
48860;DHT22;34679;51.436;-2.518;2023-05-29T11:50:25;17.40;95.10
48860;DHT22;34679;51.436;-2.518;2023-05-29T11:52:52;17.30;95.20
48860;DHT22;34679;51.436;-2.518;2023-05-29T11:55:21;17.40;95.10
48860;DHT22;34679;51.436;-2.518;2023-05-29T11:57:48;17.50;95.10
48860;DHT22;34679;51.436;-2.518;2023-05-29T12:00:18;17.30;95.30
48860;DHT22;34679;51.436;-2.518;2023-05-29T12:02:45;17.20;95.50
48860;DHT22;34679;51.436;-2.518;2023-05-29T12:05:17;17.10;95.20
48860;DHT22;34679;51.436;-2.518;2023-05-29T12:08:02;17.00;95.60
48860;DHT22;34679;51.436;-2.518;2023-05-29T12:10:30;17.10;95.40
48860;DHT22;34679;51.436;-2.518;2023-05-29T12:12:57;17.10;95.70
48860;DHT22;34679;51.436;-2.518;2023-05-29T12:15:24;17.00;96.00
48860;DHT22;34679;51.436;-2.518;2023-05-29T12:17:51;16.90;96.10
48860;DHT22;34679;51.436;-2.518;2023-05-29T12:20:18;16.80;96.10
48860;DHT22;34679;51.436;-2.518;2023-05-29T12:22:45;17.00;95.80
48860;DHT22;34679;51.436;-2.518;2023-05-29T12:25:12;17.10;95.90
48860;DHT22;34679;51.436;-2.518;2023-05-29T12:27:39;17.00;96.10
48860;DHT22;34679;51.436;-2.518;2023-05-29T12:32:41;17.00;95.70
48860;DHT22;34679;51.436;-2.518;2023-05-29T12:35:15;17.10;95.70
48860;DHT22;34679;51.436;-2.518;2023-05-29T12:37:52;17.10;96.00
48860;DHT22;34679;51.436;-2.518;2023-05-29T12:40:23;17.10;96.20
48860;DHT22;34679;51.436;-2.518;2023-05-29T12:43:05;17.20;95.90
48860;DHT22;34679;51.436;-2.518;2023-05-29T12:45:33;17.20;96.10
48860;DHT22;34679;51.436;-2.518;2023-05-29T12:48:04;17.30;96.00
48860;DHT22;34679;51.436;-2.518;2023-05-29T12:50:34;17.50;96.40
48860;DHT22;34679;51.436;-2.518;2023-05-29T12:53:03;17.40;95.40
48860;DHT22;34679;51.436;-2.518;2023-05-29T12:55:31;17.40;95.80
48860;DHT22;34679;51.436;-2.518;2023-05-29T12:58:09;17.30;95.60
48860;DHT22;34679;51.436;-2.518;2023-05-29T13:00:36;17.10;96.00
48860;DHT22;34679;51.436;-2.518;2023-05-29T13:03:02;17.10;96.30
48860;DHT22;34679;51.436;-2.518;2023-05-29T13:05:28;17.20;96.00
48860;DHT22;34679;51.436;-2.518;2023-05-29T13:07:54;17.20;95.70
48860;DHT22;34679;51.436;-2.518;2023-05-29T13:10:20;17.10;96.20
48860;DHT22;34679;51.436;-2.518;2023-05-29T13:12:48;17.20;96.30
48860;DHT22;34679;51.436;-2.518;2023-05-29T13:15:15;17.20;96.40
48860;DHT22;34679;51.436;-2.518;2023-05-29T13:17:41;17.40;96.30
48860;DHT22;34679;51.436;-2.518;2023-05-29T13:20:11;17.30;96.20
48860;DHT22;34679;51.436;-2.518;2023-05-29T13:22:42;17.70;96.00
48860;DHT22;34679;51.436;-2.518;2023-05-29T13:25:09;17.60;95.50
48860;DHT22;34679;51.436;-2.518;2023-05-29T13:27:40;17.50;96.10
48860;DHT22;34679;51.436;-2.518;2023-05-29T13:30:08;17.70;95.80
48860;DHT22;34679;51.436;-2.518;2023-05-29T13:32:34;17.80;95.80
48860;DHT22;34679;51.436;-2.518;2023-05-29T13:35:01;17.60;95.60
48860;DHT22;34679;51.436;-2.518;2023-05-29T13:37:26;17.60;95.90
48860;DHT22;34679;51.436;-2.518;2023-05-29T13:39:53;17.60;95.90
48860;DHT22;34679;51.436;-2.518;2023-05-29T13:42:19;17.60;95.30
48860;DHT22;34679;51.436;-2.518;2023-05-29T13:44:45;17.60;95.50
48860;DHT22;34679;51.436;-2.518;2023-05-29T13:47:11;17.70;95.20
48860;DHT22;34679;51.436;-2.518;2023-05-29T13:49:37;17.70;95.70
48860;DHT22;34679;51.436;-2.518;2023-05-29T13:52:03;17.70;94.90
48860;DHT22;34679;51.436;-2.518;2023-05-29T13:54:29;17.50;95.20
48860;DHT22;34679;51.436;-2.518;2023-05-29T13:56:57;17.40;95.70
48860;DHT22;34679;51.436;-2.518;2023-05-29T13:59:24;17.40;95.90
48860;DHT22;34679;51.436;-2.518;2023-05-29T14:01:50;17.40;95.40
48860;DHT22;34679;51.436;-2.518;2023-05-29T14:04:16;17.50;95.70
48860;DHT22;34679;51.436;-2.518;2023-05-29T14:06:42;17.70;96.40
48860;DHT22;34679;51.436;-2.518;2023-05-29T14:09:07;17.80;95.00
48860;DHT22;34679;51.436;-2.518;2023-05-29T14:11:39;17.80;95.30
48860;DHT22;34679;51.436;-2.518;2023-05-29T14:14:06;17.90;96.00
48860;DHT22;34679;51.436;-2.518;2023-05-29T14:16:32;18.10;95.90
48860;DHT22;34679;51.436;-2.518;2023-05-29T14:18:59;18.20;95.80
48860;DHT22;34679;51.436;-2.518;2023-05-29T14:21:25;18.30;95.30
48860;DHT22;34679;51.436;-2.518;2023-05-29T14:23:51;18.30;95.30
48860;DHT22;34679;51.436;-2.518;2023-05-29T14:26:17;18.30;95.90
48860;DHT22;34679;51.436;-2.518;2023-05-29T14:28:43;18.20;95.40
48860;DHT22;34679;51.436;-2.518;2023-05-29T14:31:09;18.30;95.90
48860;DHT22;34679;51.436;-2.518;2023-05-29T14:33:34;18.30;95.80
48860;DHT22;34679;51.436;-2.518;2023-05-29T14:36:02;18.40;95.80
48860;DHT22;34679;51.436;-2.518;2023-05-29T14:38:28;18.50;95.20
48860;DHT22;34679;51.436;-2.518;2023-05-29T14:40:54;18.30;95.60
48860;DHT22;34679;51.436;-2.518;2023-05-29T14:43:20;18.30;95.60
48860;DHT22;34679;51.436;-2.518;2023-05-29T14:45:45;18.20;94.70
48860;DHT22;34679;51.436;-2.518;2023-05-29T14:48:11;18.20;95.00
48860;DHT22;34679;51.436;-2.518;2023-05-29T14:50:37;18.10;95.10
48860;DHT22;34679;51.436;-2.518;2023-05-29T14:53:03;17.90;95.10
48860;DHT22;34679;51.436;-2.518;2023-05-29T14:55:29;18.00;95.30
48860;DHT22;34679;51.436;-2.518;2023-05-29T14:57:57;18.10;95.70
48860;DHT22;34679;51.436;-2.518;2023-05-29T15:00:23;18.30;95.60
48860;DHT22;34679;51.436;-2.518;2023-05-29T15:02:49;18.30;94.90
48860;DHT22;34679;51.436;-2.518;2023-05-29T15:05:15;18.30;94.80
48860;DHT22;34679;51.436;-2.518;2023-05-29T15:07:41;18.30;95.10
48860;DHT22;34679;51.436;-2.518;2023-05-29T15:10:06;18.30;95.30
48860;DHT22;34679;51.436;-2.518;2023-05-29T15:12:32;18.30;95.20
48860;DHT22;34679;51.436;-2.518;2023-05-29T15:14:58;18.30;94.70
48860;DHT22;34679;51.436;-2.518;2023-05-29T15:17:24;18.10;95.50
48860;DHT22;34679;51.436;-2.518;2023-05-29T15:19:50;18.20;96.50
48860;DHT22;34679;51.436;-2.518;2023-05-29T15:22:15;18.30;95.50
48860;DHT22;34679;51.436;-2.518;2023-05-29T15:24:41;18.50;95.50
48860;DHT22;34679;51.436;-2.518;2023-05-29T15:27:07;18.40;95.10
48860;DHT22;34679;51.436;-2.518;2023-05-29T15:29:34;18.50;94.50
48860;DHT22;34679;51.436;-2.518;2023-05-29T15:32:02;18.30;95.10
48860;DHT22;34679;51.436;-2.518;2023-05-29T15:34:28;18.50;95.30
48860;DHT22;34679;51.436;-2.518;2023-05-29T15:36:54;18.50;95.60
48860;DHT22;34679;51.436;-2.518;2023-05-29T15:39:20;18.50;95.00